sensor_id;sensor_type;location;lat;lon;timestamp;P1;durP1;ratioP1;P2;durP2;ratioP2
70426;SDS011;57872;55.432;37.248;2022-08-11T00:01:51;7.55;;;2.80;;
70426;SDS011;57872;55.432;37.248;2022-08-11T00:06:52;9.13;;;3.17;;
70426;SDS011;57872;55.432;37.248;2022-08-11T00:11:54;6.38;;;2.47;;
70426;SDS011;57872;55.432;37.248;2022-08-11T00:17:00;7.00;;;2.50;;
70426;SDS011;57872;55.432;37.248;2022-08-11T00:22:01;6.15;;;2.60;;
70426;SDS011;57872;55.432;37.248;2022-08-11T00:27:02;6.72;;;2.72;;
70426;SDS011;57872;55.432;37.248;2022-08-11T00:32:04;8.95;;;3.00;;
70426;SDS011;57872;55.432;37.248;2022-08-11T00:37:06;5.32;;;2.20;;
70426;SDS011;57872;55.432;37.248;2022-08-11T00:42:17;5.88;;;2.58;;
70426;SDS011;57872;55.432;37.248;2022-08-11T01:08:35;9.10;;;3.05;;
70426;SDS011;57872;55.432;37.248;2022-08-11T01:45:15;8.90;;;2.38;;
70426;SDS011;57872;55.432;37.248;2022-08-11T01:55:38;8.73;;;2.35;;
70426;SDS011;57872;55.432;37.248;2022-08-11T02:06:11;9.98;;;3.40;;
70426;SDS011;57872;55.432;37.248;2022-08-11T02:11:34;6.95;;;3.22;;
70426;SDS011;57872;55.432;37.248;2022-08-11T02:16:45;7.38;;;3.03;;
70426;SDS011;57872;55.432;37.248;2022-08-11T02:21:58;8.10;;;3.60;;
70426;SDS011;57872;55.432;37.248;2022-08-11T02:27:26;15.85;;;4.20;;
70426;SDS011;57872;55.432;37.248;2022-08-11T02:32:31;17.50;;;8.30;;
70426;SDS011;57872;55.432;37.248;2022-08-11T02:48:15;7.82;;;3.15;;
70426;SDS011;57872;55.432;37.248;2022-08-11T02:59:06;11.35;;;3.38;;
70426;SDS011;57872;55.432;37.248;2022-08-11T03:15:24;8.30;;;2.70;;
70426;SDS011;57872;55.432;37.248;2022-08-11T03:20:45;5.88;;;2.65;;
70426;SDS011;57872;55.432;37.248;2022-08-11T03:26:06;8.30;;;2.40;;
70426;SDS011;57872;55.432;37.248;2022-08-11T03:31:15;7.15;;;2.30;;
70426;SDS011;57872;55.432;37.248;2022-08-11T03:51:46;9.52;;;2.45;;
70426;SDS011;57872;55.432;37.248;2022-08-11T04:38:58;7.47;;;2.40;;
70426;SDS011;57872;55.432;37.248;2022-08-11T04:49:24;6.47;;;2.38;;
70426;SDS011;57872;55.432;37.248;2022-08-11T05:00:33;7.28;;;2.40;;
70426;SDS011;57872;55.432;37.248;2022-08-11T05:16:26;8.10;;;2.50;;
70426;SDS011;57872;55.432;37.248;2022-08-11T05:21:49;6.60;;;2.90;;
70426;SDS011;57872;55.432;37.248;2022-08-11T05:27:10;7.22;;;2.80;;
70426;SDS011;57872;55.432;37.248;2022-08-11T05:32:36;9.45;;;2.70;;
70426;SDS011;57872;55.432;37.248;2022-08-11T05:37:55;8.20;;;2.35;;
70426;SDS011;57872;55.432;37.248;2022-08-11T05:43:15;6.75;;;2.47;;
70426;SDS011;57872;55.432;37.248;2022-08-11T05:48:35;8.27;;;2.25;;
70426;SDS011;57872;55.432;37.248;2022-08-11T05:53:55;6.72;;;2.47;;
70426;SDS011;57872;55.432;37.248;2022-08-11T05:59:16;8.40;;;2.53;;
70426;SDS011;57872;55.432;37.248;2022-08-11T06:04:18;7.57;;;1.90;;
70426;SDS011;57872;55.432;37.248;2022-08-11T06:09:23;5.95;;;1.90;;
70426;SDS011;57872;55.432;37.248;2022-08-11T06:14:24;13.77;;;2.88;;
70426;SDS011;57872;55.432;37.248;2022-08-11T06:19:30;5.60;;;2.00;;
70426;SDS011;57872;55.432;37.248;2022-08-11T06:24:31;6.05;;;2.05;;
70426;SDS011;57872;55.432;37.248;2022-08-11T06:29:32;29.52;;;18.80;;
70426;SDS011;57872;55.432;37.248;2022-08-11T06:44:42;7.03;;;2.17;;
70426;SDS011;57872;55.432;37.248;2022-08-11T06:49:43;5.97;;;1.83;;
70426;SDS011;57872;55.432;37.248;2022-08-11T06:55:09;6.40;;;2.08;;
70426;SDS011;57872;55.432;37.248;2022-08-11T07:00:10;10.00;;;2.10;;
70426;SDS011;57872;55.432;37.248;2022-08-11T07:16:08;6.30;;;2.50;;
70426;SDS011;57872;55.432;37.248;2022-08-11T07:21:10;6.90;;;1.95;;
70426;SDS011;57872;55.432;37.248;2022-08-11T07:26:30;7.63;;;2.10;;
70426;SDS011;57872;55.432;37.248;2022-08-11T07:31:50;4.05;;;1.58;;
70426;SDS011;57872;55.432;37.248;2022-08-11T07:36:56;8.32;;;2.15;;
70426;SDS011;57872;55.432;37.248;2022-08-11T07:41:58;10.55;;;2.85;;
70426;SDS011;57872;55.432;37.248;2022-08-11T07:46:59;7.47;;;2.30;;
70426;SDS011;57872;55.432;37.248;2022-08-11T07:52:18;5.70;;;2.38;;
70426;SDS011;57872;55.432;37.248;2022-08-11T07:57:32;6.32;;;2.13;;
70426;SDS011;57872;55.432;37.248;2022-08-11T08:02:51;10.05;;;2.20;;
70426;SDS011;57872;55.432;37.248;2022-08-11T08:08:12;6.80;;;1.90;;
70426;SDS011;57872;55.432;37.248;2022-08-11T08:13:32;3.92;;;1.70;;
70426;SDS011;57872;55.432;37.248;2022-08-11T08:18:52;5.85;;;1.70;;
70426;SDS011;57872;55.432;37.248;2022-08-11T08:23:53;6.63;;;2.08;;
70426;SDS011;57872;55.432;37.248;2022-08-11T08:28:56;7.40;;;2.08;;
70426;SDS011;57872;55.432;37.248;2022-08-11T08:34:20;7.13;;;2.08;;
70426;SDS011;57872;55.432;37.248;2022-08-11T08:39:21;7.95;;;2.38;;
70426;SDS011;57872;55.432;37.248;2022-08-11T08:44:21;6.07;;;2.13;;
70426;SDS011;57872;55.432;37.248;2022-08-11T08:49:30;5.68;;;2.15;;
70426;SDS011;57872;55.432;37.248;2022-08-11T08:54:38;5.60;;;1.80;;
70426;SDS011;57872;55.432;37.248;2022-08-11T08:59:43;5.90;;;2.10;;
70426;SDS011;57872;55.432;37.248;2022-08-11T09:04:44;8.07;;;2.40;;
70426;SDS011;57872;55.432;37.248;2022-08-11T09:09:49;9.95;;;2.30;;
70426;SDS011;57872;55.432;37.248;2022-08-11T09:14:50;14.25;;;2.22;;
70426;SDS011;57872;55.432;37.248;2022-08-11T09:20:11;6.55;;;2.25;;
70426;SDS011;57872;55.432;37.248;2022-08-11T09:25:12;6.15;;;2.10;;
70426;SDS011;57872;55.432;37.248;2022-08-11T09:30:31;6.30;;;2.20;;
70426;SDS011;57872;55.432;37.248;2022-08-11T09:35:33;6.65;;;2.30;;
70426;SDS011;57872;55.432;37.248;2022-08-11T09:40:35;6.65;;;3.55;;
70426;SDS011;57872;55.432;37.248;2022-08-11T09:45:36;11.52;;;6.65;;
70426;SDS011;57872;55.432;37.248;2022-08-11T09:50:37;9.07;;;2.47;;
70426;SDS011;57872;55.432;37.248;2022-08-11T09:55:38;7.13;;;2.30;;
70426;SDS011;57872;55.432;37.248;2022-08-11T10:00:41;4.73;;;2.10;;
70426;SDS011;57872;55.432;37.248;2022-08-11T10:05:48;6.55;;;2.13;;
70426;SDS011;57872;55.432;37.248;2022-08-11T10:11:10;6.50;;;1.90;;
70426;SDS011;57872;55.432;37.248;2022-08-11T10:16:11;4.80;;;1.80;;
70426;SDS011;57872;55.432;37.248;2022-08-11T10:21:13;3.80;;;1.90;;
70426;SDS011;57872;55.432;37.248;2022-08-11T10:26:14;4.55;;;1.80;;
70426;SDS011;57872;55.432;37.248;2022-08-11T10:31:33;5.20;;;1.80;;
70426;SDS011;57872;55.432;37.248;2022-08-11T10:36:52;5.97;;;1.77;;
70426;SDS011;57872;55.432;37.248;2022-08-11T10:41:54;4.88;;;2.20;;
70426;SDS011;57872;55.432;37.248;2022-08-11T10:47:13;5.57;;;2.30;;
70426;SDS011;57872;55.432;37.248;2022-08-11T10:52:33;7.07;;;2.38;;
70426;SDS011;57872;55.432;37.248;2022-08-11T10:57:53;6.32;;;2.17;;
70426;SDS011;57872;55.432;37.248;2022-08-11T11:03:13;4.95;;;2.20;;
70426;SDS011;57872;55.432;37.248;2022-08-11T11:08:14;5.33;;;2.00;;
70426;SDS011;57872;55.432;37.248;2022-08-11T11:13:34;6.72;;;2.05;;
70426;SDS011;57872;55.432;37.248;2022-08-11T11:18:54;7.10;;;2.38;;
70426;SDS011;57872;55.432;37.248;2022-08-11T11:39:22;4.67;;;2.10;;
70426;SDS011;57872;55.432;37.248;2022-08-11T11:44:22;7.03;;;2.10;;
70426;SDS011;57872;55.432;37.248;2022-08-11T11:49:24;6.20;;;2.20;;
70426;SDS011;57872;55.432;37.248;2022-08-11T11:54:30;5.13;;;2.22;;
70426;SDS011;57872;55.432;37.248;2022-08-11T11:59:32;6.47;;;2.60;;
70426;SDS011;57872;55.432;37.248;2022-08-11T12:04:52;8.07;;;3.90;;
70426;SDS011;57872;55.432;37.248;2022-08-11T12:09:52;8.53;;;2.60;;
70426;SDS011;57872;55.432;37.248;2022-08-11T12:14:54;6.88;;;2.42;;
70426;SDS011;57872;55.432;37.248;2022-08-11T12:19:54;7.90;;;2.60;;
70426;SDS011;57872;55.432;37.248;2022-08-11T12:24:55;6.40;;;2.10;;
70426;SDS011;57872;55.432;37.248;2022-08-11T12:30:14;7.47;;;2.35;;
70426;SDS011;57872;55.432;37.248;2022-08-11T12:35:15;4.90;;;2.23;;
70426;SDS011;57872;55.432;37.248;2022-08-11T12:40:25;5.20;;;2.03;;
70426;SDS011;57872;55.432;37.248;2022-08-11T12:45:44;5.90;;;2.25;;
70426;SDS011;57872;55.432;37.248;2022-08-11T12:50:45;6.22;;;2.20;;
70426;SDS011;57872;55.432;37.248;2022-08-11T12:56:08;7.03;;;2.55;;
70426;SDS011;57872;55.432;37.248;2022-08-11T13:01:27;13.20;;;7.75;;
70426;SDS011;57872;55.432;37.248;2022-08-11T13:06:46;7.43;;;2.97;;
70426;SDS011;57872;55.432;37.248;2022-08-11T13:11:47;5.97;;;2.53;;
70426;SDS011;57872;55.432;37.248;2022-08-11T13:17:07;7.40;;;2.67;;
70426;SDS011;57872;55.432;37.248;2022-08-11T13:22:21;9.55;;;3.42;;
70426;SDS011;57872;55.432;37.248;2022-08-11T13:27:22;11.48;;;4.53;;
70426;SDS011;57872;55.432;37.248;2022-08-11T13:32:23;7.28;;;2.42;;
70426;SDS011;57872;55.432;37.248;2022-08-11T13:37:25;7.22;;;2.30;;
70426;SDS011;57872;55.432;37.248;2022-08-11T13:42:26;5.80;;;2.30;;
70426;SDS011;57872;55.432;37.248;2022-08-11T13:47:26;6.17;;;2.37;;
70426;SDS011;57872;55.432;37.248;2022-08-11T13:52:27;7.67;;;2.67;;
70426;SDS011;57872;55.432;37.248;2022-08-11T13:57:29;5.53;;;2.27;;
70426;SDS011;57872;55.432;37.248;2022-08-11T14:02:32;6.00;;;2.70;;
70426;SDS011;57872;55.432;37.248;2022-08-11T14:07:36;9.97;;;4.23;;
70426;SDS011;57872;55.432;37.248;2022-08-11T14:12:37;12.27;;;8.65;;
70426;SDS011;57872;55.432;37.248;2022-08-11T14:23:02;7.75;;;3.00;;
70426;SDS011;57872;55.432;37.248;2022-08-11T14:28:02;7.10;;;2.80;;
70426;SDS011;57872;55.432;37.248;2022-08-11T14:33:05;6.90;;;2.88;;
70426;SDS011;57872;55.432;37.248;2022-08-11T14:38:05;7.53;;;2.97;;
70426;SDS011;57872;55.432;37.248;2022-08-11T14:43:06;11.63;;;3.20;;
70426;SDS011;57872;55.432;37.248;2022-08-11T14:48:26;11.00;;;3.00;;
70426;SDS011;57872;55.432;37.248;2022-08-11T14:53:26;29.67;;;23.23;;
70426;SDS011;57872;55.432;37.248;2022-08-11T14:58:28;9.10;;;4.70;;
70426;SDS011;57872;55.432;37.248;2022-08-11T15:03:30;5.97;;;3.00;;
70426;SDS011;57872;55.432;37.248;2022-08-11T15:08:34;6.85;;;2.80;;
70426;SDS011;57872;55.432;37.248;2022-08-11T15:13:54;6.53;;;2.60;;
70426;SDS011;57872;55.432;37.248;2022-08-11T15:18:55;9.48;;;3.13;;
70426;SDS011;57872;55.432;37.248;2022-08-11T15:23:56;6.90;;;2.93;;
70426;SDS011;57872;55.432;37.248;2022-08-11T15:29:17;8.55;;;3.30;;
70426;SDS011;57872;55.432;37.248;2022-08-11T15:34:37;9.57;;;3.08;;
70426;SDS011;57872;55.432;37.248;2022-08-11T15:45:21;10.02;;;3.20;;
70426;SDS011;57872;55.432;37.248;2022-08-11T15:50:41;8.00;;;3.20;;
70426;SDS011;57872;55.432;37.248;2022-08-11T15:55:44;7.95;;;3.55;;
70426;SDS011;57872;55.432;37.248;2022-08-11T16:00:46;8.00;;;3.25;;
70426;SDS011;57872;55.432;37.248;2022-08-11T16:06:06;9.85;;;3.30;;
70426;SDS011;57872;55.432;37.248;2022-08-11T16:11:07;7.23;;;2.93;;
70426;SDS011;57872;55.432;37.248;2022-08-11T16:16:08;8.03;;;3.57;;
70426;SDS011;57872;55.432;37.248;2022-08-11T16:21:19;9.32;;;4.18;;
70426;SDS011;57872;55.432;37.248;2022-08-11T16:26:23;9.20;;;4.00;;
70426;SDS011;57872;55.432;37.248;2022-08-11T16:31:24;9.95;;;4.57;;
70426;SDS011;57872;55.432;37.248;2022-08-11T16:36:27;8.40;;;4.30;;
70426;SDS011;57872;55.432;37.248;2022-08-11T16:41:46;13.90;;;3.90;;
70426;SDS011;57872;55.432;37.248;2022-08-11T16:47:07;8.85;;;4.85;;
70426;SDS011;57872;55.432;37.248;2022-08-11T16:52:09;8.73;;;4.97;;
70426;SDS011;57872;55.432;37.248;2022-08-11T16:57:25;9.85;;;4.97;;
70426;SDS011;57872;55.432;37.248;2022-08-11T17:02:51;9.20;;;5.10;;
70426;SDS011;57872;55.432;37.248;2022-08-11T17:08:11;10.57;;;5.18;;
70426;SDS011;57872;55.432;37.248;2022-08-11T17:13:36;8.90;;;4.95;;
70426;SDS011;57872;55.432;37.248;2022-08-11T17:23:41;10.95;;;4.93;;
70426;SDS011;57872;55.432;37.248;2022-08-11T17:28:54;12.65;;;4.13;;
70426;SDS011;57872;55.432;37.248;2022-08-11T17:33:55;7.03;;;3.88;;
70426;SDS011;57872;55.432;37.248;2022-08-11T17:39:16;11.27;;;4.43;;
70426;SDS011;57872;55.432;37.248;2022-08-11T17:44:17;8.77;;;4.47;;
70426;SDS011;57872;55.432;37.248;2022-08-11T17:49:37;11.52;;;4.30;;
70426;SDS011;57872;55.432;37.248;2022-08-11T17:54:38;10.35;;;5.05;;
70426;SDS011;57872;55.432;37.248;2022-08-11T17:59:59;9.88;;;5.28;;
70426;SDS011;57872;55.432;37.248;2022-08-11T18:04:59;11.25;;;4.65;;
70426;SDS011;57872;55.432;37.248;2022-08-11T18:10:02;8.43;;;4.97;;
70426;SDS011;57872;55.432;37.248;2022-08-11T18:15:22;7.38;;;4.70;;
70426;SDS011;57872;55.432;37.248;2022-08-11T18:20:41;9.80;;;4.97;;
70426;SDS011;57872;55.432;37.248;2022-08-11T18:26:00;10.02;;;5.40;;
70426;SDS011;57872;55.432;37.248;2022-08-11T18:31:21;11.00;;;5.85;;
70426;SDS011;57872;55.432;37.248;2022-08-11T18:36:45;14.80;;;6.60;;
70426;SDS011;57872;55.432;37.248;2022-08-11T18:42:07;11.55;;;7.13;;
70426;SDS011;57872;55.432;37.248;2022-08-11T18:47:27;13.27;;;7.10;;
70426;SDS011;57872;55.432;37.248;2022-08-11T18:52:49;14.65;;;7.53;;
70426;SDS011;57872;55.432;37.248;2022-08-11T18:58:09;12.43;;;7.37;;
70426;SDS011;57872;55.432;37.248;2022-08-11T19:03:30;15.98;;;7.95;;
70426;SDS011;57872;55.432;37.248;2022-08-11T19:08:54;17.02;;;7.88;;
70426;SDS011;57872;55.432;37.248;2022-08-11T19:14:14;22.10;;;8.55;;
70426;SDS011;57872;55.432;37.248;2022-08-11T19:19:35;20.67;;;8.90;;
70426;SDS011;57872;55.432;37.248;2022-08-11T19:24:55;14.75;;;7.55;;
70426;SDS011;57872;55.432;37.248;2022-08-11T19:30:15;16.63;;;8.68;;
70426;SDS011;57872;55.432;37.248;2022-08-11T19:35:34;16.50;;;8.73;;
70426;SDS011;57872;55.432;37.248;2022-08-11T19:40:54;16.90;;;10.93;;
70426;SDS011;57872;55.432;37.248;2022-08-11T19:46:13;19.73;;;13.45;;
70426;SDS011;57872;55.432;37.248;2022-08-11T19:51:34;47.30;;;32.42;;
70426;SDS011;57872;55.432;37.248;2022-08-11T19:56:54;47.90;;;31.95;;
70426;SDS011;57872;55.432;37.248;2022-08-11T20:02:14;42.33;;;28.35;;
70426;SDS011;57872;55.432;37.248;2022-08-11T20:07:32;46.03;;;31.17;;
70426;SDS011;57872;55.432;37.248;2022-08-11T20:12:52;26.42;;;17.60;;
70426;SDS011;57872;55.432;37.248;2022-08-11T20:18:12;20.17;;;12.40;;
70426;SDS011;57872;55.432;37.248;2022-08-11T20:23:31;13.85;;;9.50;;
70426;SDS011;57872;55.432;37.248;2022-08-11T20:28:51;13.82;;;8.40;;
70426;SDS011;57872;55.432;37.248;2022-08-11T20:34:11;13.27;;;8.13;;
70426;SDS011;57872;55.432;37.248;2022-08-11T20:39:31;18.58;;;11.25;;
70426;SDS011;57872;55.432;37.248;2022-08-11T20:44:51;18.83;;;11.50;;
70426;SDS011;57872;55.432;37.248;2022-08-11T20:50:10;18.90;;;11.90;;
70426;SDS011;57872;55.432;37.248;2022-08-11T20:55:29;20.73;;;11.75;;
70426;SDS011;57872;55.432;37.248;2022-08-11T21:00:48;18.15;;;10.45;;
70426;SDS011;57872;55.432;37.248;2022-08-11T21:06:09;18.80;;;11.68;;
70426;SDS011;57872;55.432;37.248;2022-08-11T21:11:28;17.92;;;10.27;;
70426;SDS011;57872;55.432;37.248;2022-08-11T21:16:48;16.42;;;9.82;;
70426;SDS011;57872;55.432;37.248;2022-08-11T21:22:09;20.08;;;12.15;;
70426;SDS011;57872;55.432;37.248;2022-08-11T21:27:32;19.75;;;12.48;;
70426;SDS011;57872;55.432;37.248;2022-08-11T21:32:51;21.02;;;11.88;;
70426;SDS011;57872;55.432;37.248;2022-08-11T21:38:11;16.95;;;11.27;;
70426;SDS011;57872;55.432;37.248;2022-08-11T21:43:31;18.63;;;11.45;;
70426;SDS011;57872;55.432;37.248;2022-08-11T21:48:50;18.13;;;11.55;;
70426;SDS011;57872;55.432;37.248;2022-08-11T21:54:09;21.00;;;11.10;;
70426;SDS011;57872;55.432;37.248;2022-08-11T21:59:37;20.08;;;11.18;;
70426;SDS011;57872;55.432;37.248;2022-08-11T22:04:59;16.92;;;10.40;;
70426;SDS011;57872;55.432;37.248;2022-08-11T22:10:18;18.90;;;10.25;;
70426;SDS011;57872;55.432;37.248;2022-08-11T22:15:37;16.52;;;8.45;;
70426;SDS011;57872;55.432;37.248;2022-08-11T22:20:56;16.70;;;9.15;;
70426;SDS011;57872;55.432;37.248;2022-08-11T22:26:16;14.90;;;8.70;;
70426;SDS011;57872;55.432;37.248;2022-08-11T22:31:35;14.43;;;8.18;;
70426;SDS011;57872;55.432;37.248;2022-08-11T22:36:55;17.33;;;9.23;;
70426;SDS011;57872;55.432;37.248;2022-08-11T22:42:14;15.80;;;8.40;;
70426;SDS011;57872;55.432;37.248;2022-08-11T22:47:33;13.95;;;7.75;;
70426;SDS011;57872;55.432;37.248;2022-08-11T22:52:53;19.10;;;9.30;;
70426;SDS011;57872;55.432;37.248;2022-08-11T22:58:13;12.20;;;8.57;;
70426;SDS011;57872;55.432;37.248;2022-08-11T23:03:32;14.98;;;8.18;;
70426;SDS011;57872;55.432;37.248;2022-08-11T23:08:51;15.68;;;8.80;;
70426;SDS011;57872;55.432;37.248;2022-08-11T23:14:11;14.40;;;8.63;;
70426;SDS011;57872;55.432;37.248;2022-08-11T23:19:31;13.30;;;9.02;;
70426;SDS011;57872;55.432;37.248;2022-08-11T23:24:50;13.98;;;9.10;;
70426;SDS011;57872;55.432;37.248;2022-08-11T23:30:09;15.63;;;8.85;;
70426;SDS011;57872;55.432;37.248;2022-08-11T23:35:30;16.55;;;8.32;;
70426;SDS011;57872;55.432;37.248;2022-08-11T23:40:50;15.40;;;9.00;;
70426;SDS011;57872;55.432;37.248;2022-08-11T23:46:09;13.93;;;8.23;;
70426;SDS011;57872;55.432;37.248;2022-08-11T23:51:28;15.82;;;9.25;;
70426;SDS011;57872;55.432;37.248;2022-08-11T23:56:47;14.02;;;9.38;;
